Time;durP1;ratioP1;P1;durP2;ratioP2;P2;SDS_P1;SDS_P2;PMS_P1;PMS_P2;Temp;Humidity;BMP_temperature;BMP_pressure;BME280_temperature;BME280_humidity;BME280_pressure;Samples;Min_cycle;Max_cycle;Signal;HPM_P1;HPM_P2
2023/03/03 00:00:22;;;;;;;6.97;3.17;;;5.10;67.00;;;;;;5068535;28;20156;-79
2023/03/03 00:02:48;;;;;;;8.10;3.72;;;5.10;67.00;;;;;;5093680;28;20369;-80
2023/03/03 00:05:15;;;;;;;7.25;3.55;;;5.10;67.20;;;;;;5077958;28;20274;-81
2023/03/03 00:07:45;;;;;;;7.43;3.23;;;5.10;67.20;;;;;;5071649;28;20567;-80
2023/03/03 00:10:12;;;;;;;7.63;3.80;;;5.00;67.50;;;;;;5076517;28;20488;-80
2023/03/03 00:12:47;;;;;;;8.43;3.60;;;5.00;67.40;;;;;;5096231;27;20027;-81
2023/03/03 00:15:24;;;;;;;7.57;3.88;;;5.00;67.80;;;;;;5073336;27;20098;-80
2023/03/03 00:17:50;;;;;;;6.97;3.58;;;4.90;67.80;;;;;;5070361;27;20080;-80
2023/03/03 00:20:36;;;;;;;7.00;3.47;;;4.90;67.40;;;;;;5062398;28;20183;-79
2023/03/03 00:23:35;;;;;;;6.35;3.13;;;4.90;68.50;;;;;;5077443;27;20039;-82
2023/03/03 00:26:02;;;;;;;7.18;3.25;;;4.80;68.60;;;;;;5094648;27;20416;-82
2023/03/03 00:28:51;;;;;;;7.28;3.30;;;4.80;67.50;;;;;;5066579;27;20404;-80
2023/03/03 00:31:31;;;;;;;6.53;3.30;;;4.80;68.50;;;;;;5092582;27;20401;-80
2023/03/03 00:34:23;;;;;;;7.50;3.70;;;4.70;67.70;;;;;;5052797;27;22068;-82
2023/03/03 00:36:53;;;;;;;7.03;3.30;;;4.70;68.10;;;;;;5071083;27;20031;-79
2023/03/03 00:39:38;;;;;;;8.13;3.47;;;4.60;68.00;;;;;;5056719;27;20655;-80
2023/03/03 00:42:33;;;;;;;7.05;3.38;;;4.60;69.00;;;;;;5083104;27;20068;-82
2023/03/03 00:44:59;;;;;;;6.78;3.22;;;4.60;69.30;;;;;;5064107;27;20150;-82
2023/03/03 00:47:26;;;;;;;8.13;3.50;;;4.50;68.00;;;;;;5084747;27;20325;-81
2023/03/03 00:49:58;;;;;;;8.30;3.83;;;4.50;68.20;;;;;;5060798;27;20028;-82
2023/03/03 00:52:27;;;;;;;7.28;3.50;;;4.50;68.30;;;;;;5072638;27;20370;-79
2023/03/03 00:54:53;;;;;;;7.63;3.40;;;4.40;68.40;;;;;;5070091;28;20335;-82
2023/03/03 00:57:19;;;;;;;7.70;3.67;;;4.40;68.40;;;;;;5056888;27;20580;-80
2023/03/03 00:59:45;;;;;;;7.60;3.60;;;4.40;68.60;;;;;;5104332;27;20428;-80
2023/03/03 01:02:10;;;;;;;8.15;3.80;;;4.30;68.70;;;;;;5072712;27;20762;-79
2023/03/03 01:04:36;;;;;;;9.13;3.90;;;4.30;68.80;;;;;;5061560;27;20037;-81
2023/03/03 01:07:02;;;;;;;7.88;3.95;;;4.20;68.80;;;;;;5073885;28;20022;-82
2023/03/03 01:09:28;;;;;;;8.20;3.42;;;4.20;68.70;;;;;;5064859;27;20416;-80
2023/03/03 01:11:54;;;;;;;8.40;4.00;;;4.20;68.80;;;;;;5056865;27;20031;-82
2023/03/03 01:14:20;;;;;;;9.30;4.03;;;4.20;68.90;;;;;;5083840;28;20656;-79
2023/03/03 01:16:46;;;;;;;8.60;4.10;;;4.10;69.00;;;;;;5060859;28;20304;-80
2023/03/03 01:19:11;;;;;;;8.53;3.70;;;4.10;69.00;;;;;;5036638;27;20604;-80
2023/03/03 01:21:38;;;;;;;9.02;4.20;;;4.00;69.10;;;;;;5051198;27;20260;-80
2023/03/03 01:24:04;;;;;;;7.90;3.72;;;4.00;69.30;;;;;;5094283;27;20015;-80
2023/03/03 01:26:30;;;;;;;8.70;3.77;;;4.00;69.30;;;;;;5057601;28;20078;-82
2023/03/03 01:28:56;;;;;;;8.55;3.92;;;4.00;69.40;;;;;;5083224;27;20019;-81
2023/03/03 01:31:22;;;;;;;8.63;3.70;;;4.00;69.50;;;;;;5100047;27;20019;-82
2023/03/03 01:33:48;;;;;;;8.37;3.73;;;3.90;69.50;;;;;;5057178;27;20227;-81
2023/03/03 01:36:14;;;;;;;9.40;4.22;;;3.90;69.50;;;;;;5078583;27;20032;-80
2023/03/03 01:38:39;;;;;;;8.83;3.80;;;3.90;69.60;;;;;;5052280;27;20023;-79
2023/03/03 01:41:05;;;;;;;7.82;4.00;;;3.80;69.50;;;;;;5068157;28;20032;-80
2023/03/03 01:43:32;;;;;;;9.57;4.23;;;3.80;69.70;;;;;;5046712;27;20031;-82
2023/03/03 01:45:58;;;;;;;8.85;3.95;;;3.80;70.00;;;;;;5079219;28;20032;-80
2023/03/03 01:48:27;;;;;;;8.63;4.30;;;3.70;70.10;;;;;;5063503;27;20058;-82
2023/03/03 01:51:01;;;;;;;9.33;4.40;;;3.70;70.50;;;;;;5070389;27;20038;-80
2023/03/03 01:53:37;;;;;;;8.35;3.80;;;3.70;70.40;;;;;;5083750;27;20031;-82
2023/03/03 01:56:06;;;;;;;8.95;4.18;;;3.70;70.90;;;;;;5090645;27;20431;-82
2023/03/03 01:58:40;;;;;;;9.18;3.97;;;3.70;70.60;;;;;;5081270;27;20541;-82
2023/03/03 02:01:10;;;;;;;10.05;4.18;;;3.70;71.00;;;;;;5095108;27;20026;-79
2023/03/03 02:03:36;;;;;;;10.37;4.20;;;3.70;70.90;;;;;;5054806;27;20385;-80
2023/03/03 02:06:06;;;;;;;9.80;4.45;;;3.70;70.90;;;;;;5096892;27;20039;-79
2023/03/03 02:08:43;;;;;;;8.85;3.95;;;3.70;71.30;;;;;;5046191;27;20269;-80
2023/03/03 02:11:11;;;;;;;8.63;3.93;;;3.60;71.40;;;;;;5072375;27;20020;-82
2023/03/03 02:13:37;;;;;;;9.82;4.00;;;3.60;71.10;;;;;;5052169;27;20547;-79
2023/03/03 02:16:02;;;;;;;10.07;4.60;;;3.60;71.20;;;;;;5072440;27;20024;-81
2023/03/03 02:18:29;;;;;;;8.87;4.10;;;3.60;71.20;;;;;;5093059;27;20111;-80
2023/03/03 02:21:00;;;;;;;9.85;4.35;;;3.60;71.20;;;;;;5071508;27;21814;-80
2023/03/03 02:23:32;;;;;;;10.20;4.32;;;3.50;71.40;;;;;;5030715;27;20287;-80
2023/03/03 02:26:02;;;;;;;8.52;4.13;;;3.60;71.30;;;;;;5073488;27;20453;-80
2023/03/03 02:28:31;;;;;;;10.57;4.60;;;3.50;71.30;;;;;;5071320;27;20728;-80
2023/03/03 02:30:58;;;;;;;10.10;4.60;;;3.50;71.60;;;;;;5076001;27;20671;-82
2023/03/03 02:33:24;;;;;;;9.05;4.00;;;3.50;71.60;;;;;;5080096;27;20567;-80
2023/03/03 02:35:51;;;;;;;10.30;4.07;;;3.50;71.70;;;;;;5073753;27;20388;-79
2023/03/03 02:38:25;;;;;;;9.80;4.40;;;3.50;71.80;;;;;;5043586;28;20791;-80
2023/03/03 02:41:12;;;;;;;10.57;4.45;;;3.50;72.10;;;;;;5083056;27;20108;-79
2023/03/03 02:43:57;;;;;;;10.63;4.60;;;3.50;72.70;;;;;;5057121;27;20085;-80
2023/03/03 02:46:23;;;;;;;9.80;4.38;;;3.50;72.80;;;;;;5080554;27;20270;-80
2023/03/03 02:48:49;;;;;;;10.15;4.63;;;3.50;72.10;;;;;;5074513;27;20527;-80
2023/03/03 02:51:14;;;;;;;8.83;3.97;;;3.50;72.30;;;;;;5054766;27;20531;-79
2023/03/03 02:53:40;;;;;;;11.23;4.78;;;3.50;72.40;;;;;;5084152;28;20096;-80
2023/03/03 02:56:08;;;;;;;12.40;4.97;;;3.60;72.90;;;;;;5037690;27;20357;-82
2023/03/03 02:58:35;;;;;;;11.93;4.68;;;3.60;73.00;;;;;;5090251;27;20676;-79
2023/03/03 03:01:01;;;;;;;11.40;4.32;;;3.70;73.20;;;;;;5080673;27;20067;-82
2023/03/03 03:03:27;;;;;;;10.63;4.45;;;3.70;73.60;;;;;;5091385;27;20023;-82
2023/03/03 03:05:53;;;;;;;13.43;5.73;;;3.80;73.70;;;;;;5066997;27;20027;-81
2023/03/03 03:08:19;;;;;;;10.48;4.90;;;3.80;73.80;;;;;;5053811;27;20228;-80
2023/03/03 03:10:44;;;;;;;11.50;5.28;;;3.80;73.50;;;;;;5057814;28;20059;-80
2023/03/03 03:13:10;;;;;;;10.93;4.37;;;3.90;74.00;;;;;;5085199;27;20030;-82
2023/03/03 03:15:36;;;;;;;11.45;4.50;;;3.90;74.00;;;;;;5055725;28;20030;-79
2023/03/03 03:18:03;;;;;;;11.45;5.18;;;4.00;74.20;;;;;;5089904;27;20027;-82
2023/03/03 03:20:29;;;;;;;11.33;4.83;;;4.00;74.30;;;;;;5066228;28;20223;-80
2023/03/03 03:22:54;;;;;;;10.48;4.40;;;4.10;74.30;;;;;;5092593;27;20023;-82
2023/03/03 03:25:20;;;;;;;12.15;5.53;;;4.10;74.30;;;;;;5057382;28;21223;-80
2023/03/03 03:27:46;;;;;;;11.17;4.93;;;4.10;74.90;;;;;;5098128;28;20185;-81
2023/03/03 03:30:13;;;;;;;11.10;4.90;;;4.20;75.00;;;;;;5069635;28;20082;-79
2023/03/03 03:32:39;;;;;;;12.52;5.30;;;4.20;75.00;;;;;;5088258;28;20031;-80
2023/03/03 03:35:05;;;;;;;10.70;4.43;;;4.20;75.00;;;;;;5077213;28;20062;-82
2023/03/03 03:37:31;;;;;;;9.23;4.30;;;4.20;74.80;;;;;;5081507;28;20232;-80
2023/03/03 03:39:56;;;;;;;9.93;4.35;;;4.20;74.70;;;;;;5054790;28;20039;-82
2023/03/03 03:42:22;;;;;;;11.63;5.00;;;4.20;74.80;;;;;;5065297;28;20496;-79
2023/03/03 03:44:49;;;;;;;10.90;4.80;;;4.20;75.10;;;;;;5057726;28;20031;-80
2023/03/03 03:47:15;;;;;;;11.05;4.75;;;4.20;75.00;;;;;;5084242;28;20138;-81
2023/03/03 03:49:41;;;;;;;11.77;5.47;;;4.30;74.60;;;;;;5098094;27;20481;-80
2023/03/03 03:52:06;;;;;;;15.73;5.73;;;4.30;74.90;;;;;;5079395;28;20365;-82
2023/03/03 03:54:32;;;;;;;11.63;5.07;;;4.20;75.00;;;;;;5078223;27;20019;-80
2023/03/03 03:56:58;;;;;;;12.73;5.70;;;4.20;75.10;;;;;;5076605;27;20031;-81
2023/03/03 03:59:23;;;;;;;15.23;6.33;;;4.20;75.20;;;;;;5082098;27;20466;-79
2023/03/03 04:01:49;;;;;;;12.77;5.10;;;4.30;75.60;;;;;;5072126;27;20035;-80
2023/03/03 04:04:16;;;;;;;11.55;5.28;;;4.20;75.40;;;;;;5065732;27;20024;-79
2023/03/03 04:06:41;;;;;;;12.75;5.55;;;4.30;75.60;;;;;;5083742;27;20069;-81
2023/03/03 04:09:07;;;;;;;14.47;6.23;;;4.20;75.30;;;;;;5057760;27;20032;-82
2023/03/03 04:11:33;;;;;;;10.68;4.70;;;4.30;75.60;;;;;;5055464;27;20076;-80
2023/03/03 04:13:59;;;;;;;13.33;5.57;;;4.30;75.30;;;;;;5101028;27;20181;-82
2023/03/03 04:16:25;;;;;;;12.73;5.07;;;4.30;75.10;;;;;;5068974;27;20517;-82
2023/03/03 04:18:51;;;;;;;10.00;4.57;;;4.30;75.30;;;;;;5053783;27;20051;-80
2023/03/03 04:21:17;;;;;;;10.82;4.65;;;4.30;75.30;;;;;;5069297;27;20027;-82
2023/03/03 04:23:43;;;;;;;10.47;4.97;;;4.30;74.90;;;;;;5076150;28;20187;-81
2023/03/03 04:26:09;;;;;;;11.35;5.13;;;4.30;75.10;;;;;;5097688;27;20051;-80
2023/03/03 04:28:35;;;;;;;10.98;4.70;;;4.30;75.40;;;;;;5043389;27;20303;-80
2023/03/03 04:31:01;;;;;;;11.37;4.67;;;4.30;75.30;;;;;;5085832;27;20034;-80
2023/03/03 04:33:26;;;;;;;11.90;4.93;;;4.30;75.50;;;;;;5049425;27;20103;-82
2023/03/03 04:35:52;;;;;;;8.00;3.90;;;4.30;75.10;;;;;;5073248;27;20107;-80
2023/03/03 04:38:18;;;;;;;10.27;4.25;;;4.30;75.20;;;;;;5074732;27;20051;-81
2023/03/03 04:40:44;;;;;;;9.48;4.47;;;4.30;74.80;;;;;;5073345;28;20266;-80
2023/03/03 04:43:10;;;;;;;8.60;3.80;;;4.30;75.20;;;;;;5040979;27;20034;-82
2023/03/03 04:45:36;;;;;;;10.43;4.30;;;4.30;75.30;;;;;;5062936;27;20011;-79
2023/03/03 04:48:02;;;;;;;8.00;3.75;;;4.30;75.40;;;;;;5072988;27;20027;-82
2023/03/03 04:50:28;;;;;;;9.85;4.32;;;4.30;75.40;;;;;;5082304;27;20111;-83
2023/03/03 04:52:54;;;;;;;7.83;3.80;;;4.30;75.60;;;;;;5074202;28;20031;-80
2023/03/03 04:55:20;;;;;;;9.77;4.32;;;4.30;75.60;;;;;;5096394;27;20094;-82
2023/03/03 04:57:45;;;;;;;9.17;4.07;;;4.30;75.40;;;;;;5051882;28;20519;-80
2023/03/03 05:00:12;;;;;;;9.40;4.18;;;4.30;75.10;;;;;;5067378;28;20446;-80
2023/03/03 05:02:39;;;;;;;10.50;4.97;;;4.40;75.40;;;;;;5071923;27;20284;-79
2023/03/03 05:05:06;;;;;;;9.02;4.10;;;4.30;75.60;;;;;;5070759;28;20206;-79
2023/03/03 05:07:32;;;;;;;7.40;3.37;;;4.30;75.70;;;;;;5073674;27;20075;-82
2023/03/03 05:09:58;;;;;;;8.43;3.85;;;4.30;75.40;;;;;;5078212;27;20091;-81
2023/03/03 05:12:23;;;;;;;9.55;3.75;;;4.30;75.70;;;;;;5044907;28;20035;-82
2023/03/03 05:14:49;;;;;;;7.90;3.40;;;4.30;75.70;;;;;;5074132;27;20159;-80
2023/03/03 05:17:15;;;;;;;9.13;3.95;;;4.30;75.60;;;;;;5083893;27;20030;-82
2023/03/03 05:19:41;;;;;;;6.83;3.37;;;4.30;75.80;;;;;;5055431;28;20275;-80
2023/03/03 05:22:06;;;;;;;8.25;4.00;;;4.30;75.60;;;;;;5073864;27;20029;-80
2023/03/03 05:24:32;;;;;;;8.80;3.67;;;4.20;75.80;;;;;;5076833;27;20023;-81
2023/03/03 05:26:58;;;;;;;7.43;3.53;;;4.20;75.90;;;;;;5070223;28;20078;-80
2023/03/03 05:29:25;;;;;;;7.88;3.85;;;4.20;75.80;;;;;;5052792;28;20078;-82
2023/03/03 05:31:50;;;;;;;11.32;5.03;;;4.20;75.80;;;;;;5076080;28;20121;-81
2023/03/03 05:34:16;;;;;;;8.60;4.10;;;4.20;75.70;;;;;;5078857;28;20020;-82
2023/03/03 05:36:42;;;;;;;9.05;3.72;;;4.20;75.90;;;;;;5045690;28;20116;-82
2023/03/03 05:39:08;;;;;;;8.57;3.63;;;4.20;76.10;;;;;;5078758;27;20032;-79
2023/03/03 05:41:35;;;;;;;8.30;3.97;;;4.20;76.10;;;;;;5070825;28;20247;-80
2023/03/03 05:44:02;;;;;;;8.43;4.15;;;4.20;76.30;;;;;;5052261;28;20016;-80
2023/03/03 05:46:28;;;;;;;8.67;3.97;;;4.20;76.40;;;;;;5059696;28;20024;-82
2023/03/03 05:48:54;;;;;;;7.60;3.83;;;4.20;76.30;;;;;;5033611;28;20270;-80
2023/03/03 05:51:19;;;;;;;8.57;4.03;;;4.20;76.30;;;;;;5063483;28;20024;-80
2023/03/03 05:53:45;;;;;;;8.88;3.92;;;4.20;76.40;;;;;;5042761;28;20628;-82
2023/03/03 05:56:11;;;;;;;9.93;4.15;;;4.20;76.30;;;;;;5087906;27;20051;-79
2023/03/03 05:58:37;;;;;;;9.38;4.10;;;4.20;75.90;;;;;;5059023;28;20031;-81
2023/03/03 06:01:03;;;;;;;8.43;4.00;;;4.20;76.30;;;;;;5063285;28;20661;-81
2023/03/03 06:03:29;;;;;;;10.55;4.80;;;4.20;76.00;;;;;;5040949;28;20028;-82
2023/03/03 06:05:55;;;;;;;8.97;4.20;;;4.20;75.90;;;;;;5055733;28;20518;-80
2023/03/03 06:08:20;;;;;;;8.60;3.93;;;4.20;75.90;;;;;;5057242;28;20386;-82
2023/03/03 06:10:46;;;;;;;8.20;3.88;;;4.20;76.10;;;;;;5058614;28;20253;-81
2023/03/03 06:13:12;;;;;;;9.43;4.00;;;4.10;76.30;;;;;;5077729;28;20493;-82
2023/03/03 06:15:38;;;;;;;7.22;3.47;;;4.20;76.60;;;;;;5037628;28;20536;-79
2023/03/03 06:18:04;;;;;;;8.50;3.93;;;4.20;76.80;;;;;;5077468;28;20634;-80
2023/03/03 06:20:30;;;;;;;7.07;3.53;;;4.20;77.00;;;;;;5061221;28;20115;-82
2023/03/03 06:22:56;;;;;;;8.63;3.45;;;4.20;76.90;;;;;;5059296;28;20723;-79
2023/03/03 06:25:22;;;;;;;8.05;3.88;;;4.20;76.90;;;;;;5068257;28;20024;-82
2023/03/03 06:27:48;;;;;;;9.23;4.07;;;4.30;77.00;;;;;;5071141;28;20048;-82
2023/03/03 06:30:14;;;;;;;9.50;3.78;;;4.30;77.20;;;;;;5040081;28;20027;-79
2023/03/03 06:32:40;;;;;;;9.25;3.85;;;4.30;77.10;;;;;;5058156;28;20557;-80
2023/03/03 06:35:06;;;;;;;9.13;3.95;;;4.30;77.10;;;;;;5081218;28;20047;-80
2023/03/03 06:37:32;;;;;;;8.07;3.83;;;4.30;77.10;;;;;;5056816;28;20043;-82
2023/03/03 06:39:58;;;;;;;9.35;4.38;;;4.30;77.10;;;;;;5069853;28;20015;-80
2023/03/03 06:42:23;;;;;;;8.43;4.00;;;4.30;77.20;;;;;;5070050;28;20054;-82
2023/03/03 06:44:49;;;;;;;9.67;4.10;;;4.30;77.20;;;;;;5102410;27;20146;-80
2023/03/03 06:47:15;;;;;;;8.37;3.93;;;4.30;77.40;;;;;;5048600;28;20019;-82
2023/03/03 06:49:41;;;;;;;11.93;4.93;;;4.30;77.40;;;;;;5091832;27;20364;-80
2023/03/03 06:52:25;;;;;;;8.93;3.80;;;4.30;77.20;;;;;;5074492;28;20024;-80
2023/03/03 06:54:54;;;;;;;9.30;4.13;;;4.30;77.80;;;;;;5025877;28;20020;-81
2023/03/03 06:57:28;;;;;;;9.00;4.10;;;4.30;77.50;;;;;;5073938;28;20112;-82
2023/03/03 06:59:58;;;;;;;8.07;3.60;;;4.30;77.60;;;;;;5092259;27;20519;-81
2023/03/03 07:02:24;;;;;;;9.50;4.07;;;4.30;77.10;;;;;;5046364;28;20101;-82
2023/03/03 07:04:50;;;;;;;9.35;4.10;;;4.30;77.10;;;;;;5074749;28;20048;-79
2023/03/03 07:07:19;;;;;;;8.35;3.75;;;4.30;77.30;;;;;;5068278;28;20032;-82
2023/03/03 07:09:48;;;;;;;7.10;3.10;;;4.30;77.40;;;;;;5052120;28;20306;-81
2023/03/03 07:12:21;;;;;;;10.50;4.40;;;4.30;77.10;;;;;;5064737;28;20043;-80
2023/03/03 07:15:11;;;;;;;8.10;3.45;;;4.30;76.70;;;;;;5085311;27;20045;-79
2023/03/03 07:17:41;;;;;;;9.35;3.80;;;4.30;76.90;;;;;;5018981;28;20216;-79
2023/03/03 07:20:17;;;;;;;8.70;3.97;;;4.30;77.10;;;;;;5073838;28;20035;-82
2023/03/03 07:22:43;;;;;;;10.95;4.60;;;4.30;77.50;;;;;;5092398;28;20211;-80
2023/03/03 07:25:20;;;;;;;8.47;3.67;;;4.30;77.50;;;;;;5047059;28;20075;-80
2023/03/03 07:27:46;;;;;;;8.02;3.80;;;4.30;77.60;;;;;;5078413;28;20326;-80
2023/03/03 07:30:25;;;;;;;8.73;3.73;;;4.30;77.20;;;;;;5074039;28;20111;-79
2023/03/03 07:32:56;;;;;;;11.10;4.93;;;4.30;77.60;;;;;;5053027;28;20282;-81
2023/03/03 07:35:38;;;;;;;9.07;4.20;;;4.30;77.20;;;;;;5073757;28;20028;-82
2023/03/03 07:38:13;;;;;;;9.60;4.25;;;4.30;77.60;;;;;;5075643;28;20028;-79
2023/03/03 07:40:46;;;;;;;9.25;3.95;;;4.30;77.60;;;;;;5040208;28;20247;-81
2023/03/03 07:43:20;;;;;;;10.38;4.05;;;4.40;77.60;;;;;;5047090;28;20476;-79
2023/03/03 07:45:46;;;;;;;9.57;4.47;;;4.40;77.40;;;;;;5057303;28;20044;-78
2023/03/03 07:48:12;;;;;;;11.18;4.35;;;4.40;77.00;;;;;;5066570;28;20024;-79
2023/03/03 07:50:39;;;;;;;10.17;4.50;;;4.40;77.30;;;;;;5046424;28;20504;-79
2023/03/03 07:53:22;;;;;;;9.40;3.92;;;4.40;77.20;;;;;;5080350;28;20357;-80
2023/03/03 07:55:48;;;;;;;8.75;3.88;;;4.40;77.60;;;;;;5039462;28;20287;-81
2023/03/03 07:58:21;;;;;;;9.90;4.10;;;4.50;77.20;;;;;;5053502;28;20031;-80
2023/03/03 08:01:09;;;;;;;9.98;4.00;;;4.40;77.20;;;;;;5045999;28;20345;-79
2023/03/03 08:03:35;;;;;;;8.93;3.90;;;4.40;77.20;;;;;;5049035;28;20353;-81
2023/03/03 08:06:25;;;;;;;8.32;3.40;;;4.50;77.30;;;;;;5076458;28;20038;-80
2023/03/03 08:08:51;;;;;;;8.43;3.80;;;4.40;77.80;;;;;;5048659;28;20658;-81
2023/03/03 08:11:17;;;;;;;10.02;3.97;;;4.50;77.60;;;;;;5074343;28;20123;-83
2023/03/03 08:13:44;;;;;;;9.10;4.10;;;4.40;77.30;;;;;;5060124;28;20247;-80
2023/03/03 08:16:09;;;;;;;11.02;4.88;;;4.40;77.60;;;;;;5067308;28;20070;-80
2023/03/03 08:18:46;;;;;;;8.45;3.58;;;4.50;77.70;;;;;;5045854;28;20431;-80
2023/03/03 08:21:24;;;;;;;9.70;3.70;;;4.50;77.60;;;;;;5043838;28;20139;-80
2023/03/03 08:23:52;;;;;;;9.00;3.78;;;4.50;78.10;;;;;;5077385;28;20028;-79
2023/03/03 08:26:20;;;;;;;7.75;3.05;;;4.60;78.10;;;;;;5056852;28;20035;-82
2023/03/03 08:28:46;;;;;;;6.97;2.95;;;4.60;79.00;;;;;;5058127;28;20263;-79
2023/03/03 08:31:12;;;;;;;9.25;3.30;;;4.60;78.10;;;;;;5067857;28;20024;-79
2023/03/03 08:33:38;;;;;;;10.97;4.33;;;4.70;78.30;;;;;;5073618;28;20016;-81
2023/03/03 08:36:06;;;;;;;10.55;4.50;;;4.70;78.00;;;;;;5055515;28;20023;-80
2023/03/03 08:38:32;;;;;;;8.02;3.50;;;4.70;78.00;;;;;;5075018;28;20102;-82
2023/03/03 08:40:58;;;;;;;8.82;3.67;;;4.80;78.10;;;;;;5081396;28;20024;-79
2023/03/03 08:43:24;;;;;;;7.82;3.22;;;4.80;78.20;;;;;;5055221;28;20403;-82
2023/03/03 08:45:52;;;;;;;8.90;3.37;;;4.90;78.20;;;;;;5076243;28;20102;-79
2023/03/03 08:48:19;;;;;;;9.38;3.88;;;4.90;77.90;;;;;;5079425;28;20553;-82
2023/03/03 08:50:46;;;;;;;8.52;3.50;;;5.00;78.00;;;;;;5053646;28;27321;-80
2023/03/03 08:53:12;;;;;;;10.02;3.80;;;5.00;78.00;;;;;;5051541;28;20016;-80
2023/03/03 08:55:39;;;;;;;9.07;3.67;;;5.00;78.00;;;;;;5058898;28;20720;-79
2023/03/03 08:58:05;;;;;;;8.65;3.38;;;5.00;78.10;;;;;;5079621;28;20032;-80
2023/03/03 09:00:31;;;;;;;7.53;3.20;;;5.00;78.30;;;;;;5061209;28;20028;-82
2023/03/03 09:02:57;;;;;;;9.25;3.85;;;5.10;78.30;;;;;;5066398;28;20097;-79
2023/03/03 09:05:24;;;;;;;9.63;3.83;;;5.10;78.00;;;;;;5060174;28;20020;-82
2023/03/03 09:07:50;;;;;;;9.32;3.83;;;5.10;78.30;;;;;;5052015;28;20131;-80
2023/03/03 09:10:26;;;;;;;8.85;3.88;;;5.20;78.70;;;;;;5061232;28;20032;-82
2023/03/03 09:12:53;;;;;;;10.15;3.90;;;5.20;78.60;;;;;;5056838;28;20035;-79
2023/03/03 09:15:24;;;;;;;10.02;4.20;;;5.20;78.40;;;;;;5044936;28;20024;-81
2023/03/03 09:17:50;;;;;;;7.03;3.27;;;5.30;78.60;;;;;;5077771;28;20194;-81
2023/03/03 09:20:34;;;;;;;10.48;4.10;;;5.30;78.60;;;;;;5076744;28;20020;-82
2023/03/03 09:23:22;;;;;;;10.38;4.38;;;5.40;78.60;;;;;;5051443;28;20020;-80
2023/03/03 09:25:49;;;;;;;6.75;2.60;;;5.40;79.00;;;;;;5083332;27;20115;-78
2023/03/03 09:28:28;;;;;;;8.40;3.88;;;5.40;78.40;;;;;;5077564;28;20036;-83
2023/03/03 09:30:56;;;;;;;7.93;3.40;;;5.50;78.70;;;;;;5058695;27;20024;-81
2023/03/03 09:33:29;;;;;;;9.68;4.13;;;5.50;78.50;;;;;;5101688;27;20036;-82
2023/03/03 09:36:23;;;;;;;9.48;3.95;;;5.50;78.40;;;;;;5079671;27;20122;-79
2023/03/03 09:38:49;;;;;;;8.15;3.50;;;5.60;78.60;;;;;;5032786;27;20024;-79
2023/03/03 09:41:42;;;;;;;10.23;3.92;;;5.60;78.70;;;;;;5082612;28;20024;-82
2023/03/03 09:44:34;;;;;;;8.70;3.63;;;5.70;79.10;;;;;;5081769;28;20486;-80
2023/03/03 09:47:21;;;;;;;7.47;3.47;;;5.70;79.00;;;;;;5073675;27;20035;-80
2023/03/03 09:50:23;;;;;;;6.82;2.97;;;5.80;79.00;;;;;;5080651;27;20585;-81
2023/03/03 09:52:56;;;;;;;7.13;3.10;;;5.80;78.90;;;;;;5037939;27;20625;-79
2023/03/03 09:55:33;;;;;;;8.85;3.53;;;5.90;78.70;;;;;;5067797;27;20399;-82
2023/03/03 09:58:05;;;;;;;8.77;3.80;;;5.90;78.50;;;;;;5057824;27;20459;-80
2023/03/03 10:00:42;;;;;;;10.30;4.07;;;5.90;78.40;;;;;;5070005;27;20611;-82
2023/03/03 10:03:33;;;;;;;10.68;4.10;;;6.00;78.70;;;;;;5072028;27;20369;-80
2023/03/03 10:06:36;;;;;;;8.60;3.45;;;6.00;78.60;;;;;;5068483;27;20041;-80
2023/03/03 10:09:17;;;;;;;8.60;3.35;;;6.00;78.80;;;;;;5059133;27;20027;-79
2023/03/03 10:11:56;;;;;;;11.20;4.47;;;6.00;78.60;;;;;;5081662;27;20163;-80
2023/03/03 10:14:56;;;;;;;7.63;3.40;;;6.10;78.50;;;;;;5076989;27;20027;-82
2023/03/03 10:17:24;;;;;;;9.18;3.60;;;6.10;78.80;;;;;;5056061;27;20400;-82
2023/03/03 10:20:12;;;;;;;8.80;3.80;;;6.10;78.80;;;;;;5047367;27;20213;-79
2023/03/03 10:22:43;;;;;;;10.20;4.00;;;6.20;79.20;;;;;;5092071;27;20109;-79
2023/03/03 10:25:41;;;;;;;10.60;4.27;;;6.20;79.00;;;;;;5041210;27;20605;-79
2023/03/03 10:28:31;;;;;;;7.95;3.58;;;6.30;79.10;;;;;;5079220;28;20558;-80
2023/03/03 10:31:18;;;;;;;8.25;3.65;;;6.40;78.80;;;;;;5081349;27;20437;-79
2023/03/03 10:34:03;;;;;;;8.27;3.65;;;6.40;79.00;;;;;;5044470;27;20383;-79
2023/03/03 10:36:36;;;;;;;9.60;3.78;;;6.50;79.00;;;;;;5064264;28;20039;-82
2023/03/03 10:39:20;;;;;;;9.53;3.40;;;6.60;78.80;;;;;;5086659;27;20597;-81
2023/03/03 10:42:09;;;;;;;11.10;4.40;;;6.60;78.70;;;;;;5065072;28;20031;-79
2023/03/03 10:44:51;;;;;;;8.95;4.18;;;6.60;78.70;;;;;;5052266;27;20666;-80
2023/03/03 10:47:38;;;;;;;8.75;3.28;;;6.60;78.80;;;;;;5075767;27;20073;-81
2023/03/03 10:50:16;;;;;;;9.07;3.80;;;6.70;78.80;;;;;;5037577;28;20117;-80
2023/03/03 10:52:45;;;;;;;9.17;3.77;;;6.70;78.70;;;;;;5068306;28;20023;-82
2023/03/03 10:55:17;;;;;;;8.50;3.70;;;6.80;78.80;;;;;;5069542;27;21100;-80
2023/03/03 10:57:42;;;;;;;9.02;4.03;;;6.90;79.10;;;;;;5055436;27;20026;-80
2023/03/03 11:00:30;;;;;;;7.53;3.53;;;7.00;79.30;;;;;;5080370;28;20226;-81
2023/03/03 11:03:24;;;;;;;6.70;2.87;;;7.10;79.60;;;;;;5069635;27;20049;-82
2023/03/03 11:06:08;;;;;;;6.78;2.80;;;7.20;79.90;;;;;;5042688;28;20105;-82
2023/03/03 11:08:57;;;;;;;8.18;3.08;;;7.40;80.00;;;;;;5072412;27;20213;-80
2023/03/03 11:11:45;;;;;;;6.85;2.88;;;7.50;79.80;;;;;;5058115;27;20401;-81
2023/03/03 11:14:33;;;;;;;8.38;3.60;;;7.70;79.70;;;;;;5062715;27;20238;-80
2023/03/03 11:17:10;;;;;;;7.13;3.67;;;7.80;79.50;;;;;;5067640;27;20047;-80
2023/03/03 11:19:51;;;;;;;8.70;3.60;;;7.90;79.30;;;;;;5078694;28;20022;-79
2023/03/03 11:22:44;;;;;;;7.88;3.25;;;8.00;78.90;;;;;;5063502;27;20023;-80
2023/03/03 11:25:22;;;;;;;7.13;2.80;;;8.20;79.10;;;;;;5080858;27;20311;-80
2023/03/03 11:27:50;;;;;;;7.43;3.60;;;8.30;79.50;;;;;;5071387;28;20492;-82
2023/03/03 11:30:25;;;;;;;7.07;3.10;;;8.50;80.90;;;;;;5067956;28;20167;-79
2023/03/03 11:33:11;;;;;;;8.25;3.80;;;8.80;82.80;;;;;;5084443;28;20384;-82
2023/03/03 11:35:44;;;;;;;7.63;3.92;;;9.10;83.10;;;;;;5048655;28;20046;-80
2023/03/03 11:38:46;;;;;;;8.10;3.80;;;9.50;82.40;;;;;;5071319;28;20301;-80
2023/03/03 11:41:39;;;;;;;8.60;4.68;;;9.90;80.80;;;;;;5078165;28;20243;-80
2023/03/03 11:44:23;;;;;;;8.60;4.27;;;10.30;79.00;;;;;;5038499;28;20270;-79
2023/03/03 11:47:01;;;;;;;8.50;4.15;;;10.50;79.40;;;;;;5066203;28;20404;-83
2023/03/03 11:49:30;;;;;;;8.23;3.85;;;10.60;79.20;;;;;;5081936;28;20105;-79
2023/03/03 11:52:33;;;;;;;8.13;3.75;;;10.60;78.20;;;;;;5081652;28;20043;-82
2023/03/03 11:55:20;;;;;;;7.88;3.67;;;10.70;76.70;;;;;;5068209;28;20024;-79
2023/03/03 11:58:19;;;;;;;7.10;3.20;;;10.70;77.30;;;;;;5056560;28;20183;-82
2023/03/03 12:01:14;;;;;;;7.57;3.60;;;10.70;76.20;;;;;;5081877;28;20099;-82
2023/03/03 12:03:55;;;;;;;6.63;3.42;;;10.70;76.90;;;;;;5083607;28;20613;-82
2023/03/03 12:06:35;;;;;;;8.70;3.53;;;10.80;77.70;;;;;;5072087;28;20028;-80
2023/03/03 12:09:27;;;;;;;9.32;4.63;;;10.90;78.30;;;;;;5061252;28;20304;-80
2023/03/03 12:12:22;;;;;;;8.87;3.90;;;11.10;79.00;;;;;;5057475;27;20730;-82
2023/03/03 12:15:07;;;;;;;7.18;3.72;;;11.30;78.30;;;;;;5037894;27;20019;-82
2023/03/03 12:17:39;;;;;;;9.85;4.47;;;11.60;81.50;;;;;;5066929;27;20448;-80
2023/03/03 12:20:49;;;;;;;9.55;4.53;;;12.00;82.00;;;;;;5065698;27;20250;-81
2023/03/03 12:23:23;;;;;;;9.30;4.90;;;12.50;82.70;;;;;;5037347;27;21071;-80
2023/03/03 12:26:04;;;;;;;9.13;4.70;;;12.90;81.20;;;;;;5094858;27;20055;-82
2023/03/03 12:28:41;;;;;;;8.95;4.68;;;13.40;81.60;;;;;;5079369;27;20039;-80
2023/03/03 12:31:09;;;;;;;8.35;4.53;;;13.80;82.10;;;;;;5071226;27;20020;-80
2023/03/03 12:33:35;;;;;;;8.88;4.43;;;14.30;83.00;;;;;;5067276;27;20039;-79
2023/03/03 12:36:00;;;;;;;8.60;4.80;;;14.70;81.70;;;;;;5077394;27;20212;-80
2023/03/03 12:38:26;;;;;;;9.60;4.72;;;15.00;80.50;;;;;;5042391;27;20107;-79
2023/03/03 12:41:30;;;;;;;8.37;4.47;;;15.20;78.50;;;;;;5084832;27;20114;-82
2023/03/03 12:44:04;;;;;;;8.73;4.60;;;15.40;75.80;;;;;;5076659;27;20035;-82
2023/03/03 12:46:42;;;;;;;8.75;4.50;;;15.60;77.60;;;;;;5071713;27;20555;-80
2023/03/03 12:49:08;;;;;;;8.20;4.45;;;15.90;76.90;;;;;;5095945;27;20622;-80
2023/03/03 12:51:39;;;;;;;7.67;4.37;;;16.10;78.60;;;;;;5095775;27;20068;-81
2023/03/03 12:54:33;;;;;;;8.35;4.25;;;16.40;75.40;;;;;;5065301;27;20748;-81
2023/03/03 12:57:05;;;;;;;7.22;4.03;;;16.60;74.70;;;;;;5079113;27;20375;-80
2023/03/03 12:59:44;;;;;;;7.03;4.07;;;16.80;77.20;;;;;;5088164;27;20431;-81
2023/03/03 13:02:27;;;;;;;6.70;4.00;;;17.00;74.10;;;;;;5055050;27;20246;-80
2023/03/03 13:05:01;;;;;;;6.97;4.17;;;17.30;74.20;;;;;;5095552;27;20256;-82
2023/03/03 13:07:34;;;;;;;7.07;4.70;;;17.50;72.90;;;;;;5068983;27;20019;-83
2023/03/03 13:10:39;;;;;;;8.05;4.20;;;17.70;73.10;;;;;;5043443;27;20273;-80
2023/03/03 13:13:14;;;;;;;8.93;5.07;;;17.80;71.40;;;;;;5059135;27;20020;-82
2023/03/03 13:16:11;;;;;;;8.65;4.72;;;17.80;69.10;;;;;;5091681;27;20028;-80
2023/03/03 13:18:58;;;;;;;6.67;3.60;;;17.80;67.70;;;;;;5065419;28;20332;-82